Pittsburgh International Airport
KPIT : now visible

Airfield :











YOU CAN JOIN US ON...

 
LOGIN :

Register | Disclaimer

   EN    FR    IT 

 









Legend :    VFR   Marginal VFR   IFR   Intensive IFR   Very Intensive IFR
Visi :
Ceiling :
>= 8 km
>= 3000ft
5 to 8 km
1000 to 3000 ft
1500m to 5 km
500 to 1000 ft
800 to 1500m
200 to 500 ft
< 800m
< 200 ft
Symbols :   Thunderstorms  Fog  Heavy snow  Heavy precipitations  Wind > 20 kt






- Airport Elevation : 1203 ft
- IATA code : PIT


KPIT - Pittsburgh International

CURRENT METAR :
  • 172233Z 28018G26KT 8SM -SN OVC025 M04/M08 A2959 RMK AO2 PK WND 29029/2204 SNB31 P0000 T10391078

EXPIRED METARs :
  • 172151Z 29021G27KT 10SM OVC026 M03/M08 A2956 RMK AO2 PK WND 28029/2110 SLP030 T10331078
  • 172051Z 28015G26KT 10SM OVC027 M03/M08 A2952 RMK AO2 PK WND 29032/2003 SLP016 60000 T10331083 53039
  • 171951Z 28016G31KT 8SM OVC026 M03/M08 A2948 RMK AO2 PK WND 28034/1932 SNE50 SLP002 P0000 T10331083

TAF KPIT
Valid from the 17 at 21:00 until the 19 at 00:00 UTC


172056Z 1721/1824 28015G26KT P6SM -SHSN OVC027
FM180400 29013G23KT P6SM OVC025
FM180900 27009KT P6SM OVC020
FM182100 22006KT P6SM BKN035
KZOB FIR / North America



MET'MAP, your aeronautical weather chart ! - Copyright ORBIFLY December 2007 - Disclaimer

ORBIFLY MET'MAP TEAM :

Programming & Development : Alexandra Zaïnal
Concept & original design : Baudouin d'Aumeries
Assistance for programming : Marc-Olivier Méhu
Technical & hardware support : Manuel Goepfert

Contact : metmap@orbifly.com




SOURCES & CREDITS :

   NOAA       Earth
Advisory